createdAt,value
2019-01-20T00:01:35.576Z,59.18
2019-01-20T00:04:05.047Z,52.73
2019-01-20T00:06:35.045Z,52.60
2019-01-20T00:09:07.283Z,54.37
2019-01-20T00:11:36.869Z,50.00
2019-01-20T00:14:06.473Z,46.70
2019-01-20T00:16:35.855Z,57.47
2019-01-20T00:19:05.040Z,50.17
2019-01-20T00:21:34.459Z,59.30
2019-01-20T00:24:03.661Z,50.33
2019-01-20T00:26:32.797Z,46.70
2019-01-20T00:29:02.003Z,48.93
2019-01-20T00:31:31.200Z,49.00
2019-01-20T00:34:00.255Z,45.27
2019-01-20T00:36:29.391Z,47.50
2019-01-20T00:38:58.483Z,48.80
2019-01-20T00:41:27.693Z,46.30
2019-01-20T00:43:56.949Z,56.73
2019-01-20T00:46:26.169Z,46.57
2019-01-20T00:48:55.355Z,55.25
2019-01-20T00:51:24.688Z,60.10
2019-01-20T00:53:53.908Z,53.00
2019-01-20T00:56:23.141Z,50.93
2019-01-20T00:58:52.511Z,48.75
2019-01-20T01:01:21.628Z,44.75
2019-01-20T01:03:50.758Z,45.73
2019-01-20T01:06:21.258Z,51.10
2019-01-20T01:08:50.381Z,49.90
2019-01-20T01:11:19.453Z,44.45
2019-01-20T01:13:48.574Z,50.38
2019-01-20T01:16:17.654Z,46.73
2019-01-20T01:18:47.045Z,46.88
2019-01-20T01:21:16.444Z,47.48
2019-01-20T01:23:45.566Z,46.28
2019-01-20T01:26:14.676Z,52.58
2019-01-20T01:28:44.005Z,50.20
2019-01-20T01:31:13.142Z,51.48
2019-01-20T01:33:42.370Z,50.33
2019-01-20T01:36:11.531Z,44.53
2019-01-20T01:38:40.831Z,44.50
2019-01-20T01:41:10.197Z,49.40
2019-01-20T01:43:39.566Z,48.10
2019-01-20T01:46:08.701Z,46.50
2019-01-20T01:48:38.025Z,46.60
2019-01-20T01:51:07.127Z,50.35
2019-01-20T01:53:36.222Z,45.00
2019-01-20T01:56:05.844Z,49.13
2019-01-20T01:58:34.979Z,49.13
2019-01-20T02:01:04.739Z,45.83
2019-01-20T02:03:33.958Z,44.93
2019-01-20T02:06:03.196Z,50.95
2019-01-20T02:08:32.390Z,47.70
2019-01-20T02:11:01.786Z,48.50
2019-01-20T02:13:30.876Z,54.03
2019-01-20T02:16:00.024Z,47.53
2019-01-20T02:18:29.275Z,42.93
2019-01-20T02:20:58.421Z,48.35
2019-01-20T02:23:27.800Z,46.68
2019-01-20T02:25:57.125Z,51.33
2019-01-20T02:28:26.253Z,47.05
2019-01-20T02:30:55.376Z,58.40
2019-01-20T02:33:24.687Z,46.73
2019-01-20T02:35:53.824Z,53.50
2019-01-20T02:38:23.419Z,48.80
2019-01-20T02:40:52.641Z,47.77
2019-01-20T02:43:21.739Z,55.52
2019-01-20T02:45:51.086Z,50.03
2019-01-20T02:48:20.202Z,48.73
2019-01-20T02:50:49.429Z,52.37
2019-01-20T02:53:18.522Z,50.97
2019-01-20T02:55:47.826Z,47.73
2019-01-20T02:58:17.179Z,49.80
2019-01-20T03:00:46.397Z,52.67
2019-01-20T03:03:15.516Z,49.15
2019-01-20T03:05:44.633Z,49.20
2019-01-20T03:08:13.860Z,51.90
2019-01-20T03:10:42.954Z,45.43
2019-01-20T03:13:12.107Z,48.40
2019-01-20T03:15:41.361Z,50.10
2019-01-20T03:18:10.621Z,48.40
2019-01-20T03:20:39.838Z,47.17
2019-01-20T03:23:09.134Z,44.80
2019-01-20T03:25:38.334Z,45.00
2019-01-20T03:28:07.462Z,43.40
2019-01-20T03:30:36.592Z,44.10
2019-01-20T03:33:06.086Z,43.53
2019-01-20T03:35:35.446Z,43.87
2019-01-20T03:38:04.583Z,47.97
2019-01-20T03:40:33.661Z,43.37
2019-01-20T03:43:02.790Z,46.07
2019-01-20T03:45:32.069Z,42.10
2019-01-20T03:48:01.286Z,48.40
2019-01-20T03:50:30.598Z,41.93
2019-01-20T03:52:59.800Z,48.38
2019-01-20T03:55:29.018Z,49.30
2019-01-20T03:57:58.317Z,45.67
2019-01-20T04:00:27.516Z,51.50
2019-01-20T04:03:00.133Z,52.50
2019-01-20T04:05:29.212Z,48.33
2019-01-20T04:07:58.496Z,45.52
2019-01-20T04:10:27.696Z,41.07
2019-01-20T04:12:57.012Z,50.45
2019-01-20T04:15:27.083Z,42.63
2019-01-20T04:17:56.218Z,44.67
2019-01-20T04:20:25.319Z,52.23
2019-01-20T04:22:54.613Z,42.27
2019-01-20T04:25:23.834Z,38.10
2019-01-20T04:27:52.908Z,52.67
2019-01-20T04:30:22.230Z,46.70
2019-01-20T04:32:51.521Z,42.53
2019-01-20T04:35:20.605Z,45.90
2019-01-20T04:37:49.895Z,41.23
2019-01-20T04:40:21.143Z,45.63
2019-01-20T04:42:50.223Z,43.23
2019-01-20T04:45:19.386Z,51.97
2019-01-20T04:47:48.651Z,43.13
2019-01-20T04:50:25.096Z,45.20
2019-01-20T04:52:54.211Z,50.70
2019-01-20T04:55:23.299Z,48.70
2019-01-20T04:57:55.588Z,47.23
2019-01-20T05:00:28.647Z,49.40
2019-01-20T05:02:57.767Z,43.53
2019-01-20T05:05:27.109Z,45.37
2019-01-20T05:07:56.222Z,45.37
2019-01-20T05:10:25.515Z,46.90
2019-01-20T05:12:54.738Z,48.27
2019-01-20T05:15:25.367Z,41.13
2019-01-20T05:17:54.690Z,42.90
2019-01-20T05:20:24.063Z,43.37
2019-01-20T05:22:53.199Z,41.07
2019-01-20T05:25:22.303Z,44.13
2019-01-20T05:27:51.625Z,42.77
2019-01-20T05:30:23.192Z,44.37
2019-01-20T05:32:52.312Z,40.00
2019-01-20T05:35:21.658Z,39.40
2019-01-20T05:37:50.738Z,47.93
2019-01-20T05:40:20.453Z,51.10
2019-01-20T05:42:49.984Z,44.03
2019-01-20T05:45:21.105Z,45.87
2019-01-20T05:47:50.185Z,46.77
2019-01-20T05:50:19.822Z,45.70
2019-01-20T05:52:48.947Z,52.67
2019-01-20T05:55:18.068Z,46.67
2019-01-20T05:57:47.161Z,47.10
2019-01-20T06:00:24.135Z,48.83
2019-01-20T06:02:53.399Z,44.67
2019-01-20T06:05:22.673Z,49.93
2019-01-20T06:07:51.842Z,48.17
2019-01-20T06:10:21.123Z,45.90
2019-01-20T06:12:54.254Z,48.40
2019-01-20T06:15:22.080Z,47.00
2019-01-20T06:17:51.177Z,48.10
2019-01-20T06:20:20.299Z,47.83
2019-01-20T06:22:49.431Z,51.70
2019-01-20T06:25:18.547Z,49.93
2019-01-20T06:27:47.835Z,53.47
2019-01-20T06:30:19.748Z,50.10
2019-01-20T06:32:48.828Z,51.63
2019-01-20T06:35:18.305Z,52.47
2019-01-20T06:37:47.388Z,49.87
2019-01-20T06:40:16.553Z,47.50
2019-01-20T06:42:46.253Z,50.63
2019-01-20T06:45:15.544Z,53.30
2019-01-20T06:47:44.633Z,51.30
2019-01-20T06:50:15.336Z,54.40
2019-01-20T06:52:44.594Z,50.80
2019-01-20T06:55:14.173Z,45.37
2019-01-20T06:57:43.413Z,50.67
2019-01-20T07:00:15.806Z,54.13
2019-01-20T07:02:45.369Z,51.30
2019-01-20T07:05:14.724Z,53.20
2019-01-20T07:07:44.007Z,54.37
2019-01-20T07:10:14.430Z,51.57
2019-01-20T07:12:43.667Z,51.87
2019-01-20T07:15:18.021Z,50.60
2019-01-20T07:17:47.446Z,49.97
2019-01-20T07:20:17.007Z,48.90
2019-01-20T07:22:46.358Z,61.27
2019-01-20T07:25:15.793Z,50.80
2019-01-20T07:27:45.123Z,58.40
2019-01-20T07:30:16.747Z,50.10
2019-01-20T07:32:46.028Z,49.50
2019-01-20T07:35:16.285Z,59.80
2019-01-20T07:37:45.926Z,57.80
2019-01-20T07:40:18.031Z,52.77
2019-01-20T07:42:47.928Z,52.90
2019-01-20T07:45:17.503Z,50.33
2019-01-20T07:47:47.624Z,50.27
2019-01-20T07:50:19.162Z,53.90
2019-01-20T07:52:49.343Z,56.60
2019-01-20T07:55:18.708Z,55.23
2019-01-20T07:57:48.259Z,51.90
2019-01-20T08:00:19.999Z,52.37
2019-01-20T08:02:50.175Z,56.67
2019-01-20T08:05:19.772Z,56.67
2019-01-20T08:07:49.959Z,53.33
2019-01-20T08:10:21.781Z,58.10
2019-01-20T08:12:50.893Z,51.63
2019-01-20T08:15:20.315Z,55.17
2019-01-20T08:17:50.064Z,50.83
2019-01-20T08:20:20.123Z,57.03
2019-01-20T08:22:49.779Z,56.33
2019-01-20T08:25:19.179Z,59.67
2019-01-20T08:27:48.568Z,56.20
2019-01-20T08:30:20.775Z,59.67
2019-01-20T08:32:50.017Z,54.43
2019-01-20T08:35:19.213Z,59.60
2019-01-20T08:37:48.881Z,48.50
2019-01-20T08:40:26.243Z,49.43
2019-01-20T08:42:55.443Z,54.53
2019-01-20T08:46:01.379Z,57.03
2019-01-20T08:48:32.392Z,52.73
2019-01-20T08:51:01.866Z,60.37
2019-01-20T08:53:31.103Z,63.93
2019-01-20T08:56:00.416Z,62.83
2019-01-20T08:58:29.558Z,62.13
2019-01-20T09:00:58.891Z,51.03
2019-01-20T09:03:27.964Z,57.60
2019-01-20T09:05:57.410Z,57.00
2019-01-20T09:08:26.967Z,57.07
2019-01-20T09:10:56.105Z,57.80
2019-01-20T09:13:25.763Z,56.43
2019-01-20T09:15:55.091Z,60.00
2019-01-20T09:18:24.583Z,52.37
2019-01-20T09:20:54.030Z,56.30
2019-01-20T09:23:23.236Z,59.33
2019-01-20T09:25:52.381Z,56.47
2019-01-20T09:28:21.506Z,56.13
2019-01-20T09:30:51.108Z,57.40
2019-01-20T09:33:24.723Z,54.30
2019-01-20T09:35:53.782Z,53.03
2019-01-20T09:38:22.974Z,57.97
2019-01-20T09:40:52.481Z,55.10
2019-01-20T09:43:21.637Z,64.97
2019-01-20T09:45:52.158Z,54.77
2019-01-20T09:48:21.775Z,62.00
2019-01-20T09:50:51.204Z,56.73
2019-01-20T09:53:20.489Z,59.97
2019-01-20T09:55:49.789Z,56.70
2019-01-20T09:58:19.560Z,58.00
2019-01-20T10:00:48.858Z,61.33
2019-01-20T10:03:18.255Z,68.03
2019-01-20T10:05:47.360Z,55.90
2019-01-20T10:08:16.691Z,58.57
2019-01-20T10:10:45.837Z,64.73
2019-01-20T10:13:15.287Z,54.17
2019-01-20T10:15:44.445Z,57.57
2019-01-20T10:18:13.683Z,60.87
2019-01-20T10:20:42.810Z,65.37
2019-01-20T10:23:12.083Z,63.27
2019-01-20T10:25:41.175Z,57.47
2019-01-20T10:28:12.584Z,57.20
2019-01-20T10:30:41.811Z,59.67
2019-01-20T10:33:13.697Z,60.90
2019-01-20T10:35:47.238Z,61.60
2019-01-20T10:38:18.274Z,63.80
2019-01-20T10:40:47.602Z,59.67
2019-01-20T10:43:16.848Z,59.73
2019-01-20T10:45:45.975Z,56.50
2019-01-20T10:48:15.301Z,60.53
2019-01-20T10:50:44.498Z,62.73
2019-01-20T10:53:13.712Z,58.23
2019-01-20T10:55:43.440Z,59.03
2019-01-20T10:58:12.864Z,61.87
2019-01-20T11:00:42.570Z,63.90
2019-01-20T11:03:12.374Z,57.43
2019-01-20T11:05:41.742Z,60.90
2019-01-20T11:08:10.924Z,61.13
2019-01-20T11:10:40.335Z,58.87
2019-01-20T11:13:09.520Z,57.93
2019-01-20T11:15:38.771Z,55.83
2019-01-20T11:18:09.731Z,57.50
2019-01-20T11:20:38.857Z,60.47
2019-01-20T11:23:08.361Z,57.00
2019-01-20T11:25:42.994Z,54.37
2019-01-20T11:28:12.450Z,54.67
2019-01-20T11:30:41.830Z,60.63
2019-01-20T11:33:10.917Z,55.70
2019-01-20T11:35:40.064Z,58.43
2019-01-20T11:38:09.201Z,61.30
2019-01-20T11:40:38.490Z,59.27
2019-01-20T11:43:07.778Z,55.40
2019-01-20T11:45:37.774Z,57.47
2019-01-20T11:48:08.449Z,59.17
2019-01-20T11:50:38.079Z,61.03
2019-01-20T11:53:07.332Z,54.40
2019-01-20T11:55:36.742Z,58.40
2019-01-20T11:58:05.915Z,60.43
2019-01-20T12:00:37.183Z,62.23
2019-01-20T12:03:08.210Z,55.97
2019-01-20T12:05:40.452Z,57.07
2019-01-20T12:08:09.813Z,56.33
2019-01-20T12:10:39.122Z,59.80
2019-01-20T12:13:13.734Z,53.00
2019-01-20T12:15:43.130Z,59.33
2019-01-20T12:18:12.265Z,57.20
2019-01-20T12:20:41.415Z,54.97
2019-01-20T12:23:10.709Z,60.03
2019-01-20T12:25:40.039Z,54.27
2019-01-20T12:28:09.234Z,51.57
2019-01-20T12:30:39.698Z,58.33
2019-01-20T12:33:09.325Z,55.97
2019-01-20T12:35:38.701Z,53.80
2019-01-20T12:38:08.179Z,61.43
2019-01-20T12:40:46.203Z,50.83
2019-01-20T12:43:15.389Z,61.70
2019-01-20T12:45:44.742Z,51.13
2019-01-20T12:48:14.462Z,54.90
2019-01-20T12:50:43.799Z,56.40
2019-01-20T12:53:13.337Z,54.07
2019-01-20T12:55:42.444Z,55.27
2019-01-20T12:58:11.628Z,46.23
2019-01-20T13:00:40.855Z,52.27
2019-01-20T13:03:10.072Z,50.43
2019-01-20T13:05:39.369Z,51.80
2019-01-20T13:08:08.620Z,48.63
2019-01-20T13:10:37.943Z,57.10
2019-01-20T13:13:07.224Z,53.20
2019-01-20T13:15:36.928Z,52.17
2019-01-20T13:18:06.199Z,50.40
2019-01-20T13:20:35.534Z,50.60
2019-01-20T13:23:04.697Z,54.93
2019-01-20T13:25:33.947Z,51.03
2019-01-20T13:28:03.051Z,58.13
2019-01-20T13:30:32.188Z,54.50
2019-01-20T13:33:01.616Z,51.67
2019-01-20T13:35:31.085Z,54.87
2019-01-20T13:38:08.870Z,59.27
2019-01-20T13:40:50.874Z,52.37
2019-01-20T13:43:20.238Z,54.23
2019-01-20T13:45:49.521Z,54.53
2019-01-20T13:48:18.770Z,52.90
2019-01-20T13:50:48.044Z,57.03
2019-01-20T13:53:17.161Z,49.17
2019-01-20T13:55:47.279Z,51.37
2019-01-20T13:58:17.463Z,57.27
2019-01-20T14:00:46.864Z,55.40
2019-01-20T14:03:15.988Z,52.83
2019-01-20T14:05:45.351Z,54.73
2019-01-20T14:08:15.240Z,59.40
2019-01-20T14:10:44.516Z,51.27
2019-01-20T14:13:14.967Z,55.87
2019-01-20T14:15:44.377Z,51.90
2019-01-20T14:18:13.843Z,54.87
2019-01-20T14:20:43.233Z,50.43
2019-01-20T14:23:12.399Z,55.10
2019-01-20T14:25:41.517Z,50.23
2019-01-20T14:28:10.702Z,51.43
2019-01-20T14:30:40.012Z,55.70
2019-01-20T14:33:09.474Z,50.90
2019-01-20T14:35:38.627Z,56.87
2019-01-20T14:38:07.923Z,51.13
2019-01-20T14:40:37.050Z,58.00
2019-01-20T14:43:06.534Z,56.93
2019-01-20T14:45:35.851Z,56.80
2019-01-20T14:48:05.641Z,53.03
2019-01-20T14:50:35.119Z,47.27
2019-01-20T14:53:04.990Z,51.07
2019-01-20T14:55:34.325Z,49.43
2019-01-20T14:58:03.644Z,53.30
2019-01-20T15:00:35.057Z,49.87
2019-01-20T15:03:04.721Z,55.33
2019-01-20T15:05:34.274Z,54.03
2019-01-20T15:08:04.244Z,50.50
2019-01-20T15:10:33.368Z,58.97
2019-01-20T15:13:02.874Z,51.40
2019-01-20T15:15:34.905Z,53.50
2019-01-20T15:18:04.859Z,58.90
2019-01-20T15:20:34.434Z,52.17
2019-01-20T15:23:03.719Z,51.73
2019-01-20T15:25:33.412Z,59.03
2019-01-20T15:28:02.852Z,52.13
2019-01-20T15:30:32.494Z,51.57
2019-01-20T15:33:02.818Z,55.67
2019-01-20T15:35:32.128Z,53.07
2019-01-20T15:38:01.587Z,62.27
2019-01-20T15:40:31.024Z,52.20
2019-01-20T15:43:00.227Z,49.47
2019-01-20T15:45:30.266Z,56.30
2019-01-20T15:47:59.578Z,56.37
2019-01-20T15:50:31.823Z,52.33
2019-01-20T15:53:01.955Z,60.93
2019-01-20T15:55:31.742Z,57.27
2019-01-20T15:58:01.051Z,56.57
2019-01-20T16:00:31.945Z,63.63
2019-01-20T16:03:01.111Z,54.17
2019-01-20T16:05:30.995Z,57.20
2019-01-20T16:08:00.199Z,58.93
2019-01-20T16:10:29.505Z,51.47
2019-01-20T16:12:58.767Z,59.20
2019-01-20T16:15:33.669Z,50.87
2019-01-20T16:18:02.903Z,60.00
2019-01-20T16:20:33.129Z,59.47
2019-01-20T16:23:03.569Z,58.60
2019-01-20T16:25:37.376Z,58.83
2019-01-20T16:28:07.904Z,60.63
2019-01-20T16:30:39.144Z,63.07
2019-01-20T16:33:08.426Z,59.80
2019-01-20T16:35:37.534Z,62.87
2019-01-20T16:38:08.509Z,59.70
2019-01-20T16:40:38.179Z,59.57
2019-01-20T16:43:07.806Z,64.73
2019-01-20T16:45:42.116Z,54.57
2019-01-20T16:48:11.666Z,61.00
2019-01-20T16:50:41.115Z,59.50
2019-01-20T16:53:10.596Z,61.33
2019-01-20T16:55:39.889Z,61.00
2019-01-20T16:58:09.428Z,67.33
2019-01-20T17:00:41.250Z,59.30
2019-01-20T17:03:10.401Z,61.27
2019-01-20T17:05:39.751Z,60.53
2019-01-20T17:08:09.156Z,53.57
2019-01-20T17:10:40.633Z,58.87
2019-01-20T17:13:10.710Z,56.23
2019-01-20T17:15:42.144Z,57.97
2019-01-20T17:18:12.397Z,53.03
2019-01-20T17:20:41.577Z,57.33
2019-01-20T17:23:10.874Z,57.77
2019-01-20T17:25:39.951Z,55.13
2019-01-20T17:28:09.386Z,50.63
2019-01-20T17:30:39.341Z,62.80
2019-01-20T17:33:10.740Z,58.07
2019-01-20T17:35:39.947Z,53.20
2019-01-20T17:38:09.355Z,53.07
2019-01-20T17:40:38.559Z,54.70
2019-01-20T17:43:08.143Z,54.60
2019-01-20T17:45:48.388Z,54.50
2019-01-20T17:48:13.873Z,51.40
2019-01-20T17:50:44.581Z,48.97
2019-01-20T17:53:14.748Z,48.47
2019-01-20T17:55:44.361Z,58.80
2019-01-20T17:58:13.875Z,55.73
2019-01-20T18:01:11.607Z,53.43
2019-01-20T18:03:40.850Z,56.20
2019-01-20T18:06:10.075Z,53.73
2019-01-20T18:08:39.559Z,54.57
2019-01-20T18:11:09.166Z,54.03
2019-01-20T18:13:38.365Z,52.83
2019-01-20T18:16:07.657Z,51.63
2019-01-20T18:18:36.937Z,56.70
2019-01-20T18:21:06.557Z,56.30
2019-01-20T18:23:36.210Z,58.60
2019-01-20T18:26:05.744Z,58.83
2019-01-20T18:28:36.934Z,51.17
2019-01-20T18:31:06.227Z,58.33
2019-01-20T18:33:36.056Z,56.23
2019-01-20T18:36:05.498Z,55.30
2019-01-20T18:38:34.906Z,57.60
2019-01-20T18:41:04.784Z,56.87
2019-01-20T18:43:34.151Z,56.13
2019-01-20T18:46:03.888Z,54.73
2019-01-20T18:48:33.374Z,55.00
2019-01-20T18:51:02.864Z,57.67
2019-01-20T18:53:32.013Z,56.13
2019-01-20T18:56:01.389Z,50.37
2019-01-20T18:58:30.559Z,53.23
2019-01-20T19:01:00.190Z,59.83
2019-01-20T19:03:29.679Z,54.50
2019-01-20T19:05:59.212Z,63.80
2019-01-20T19:08:28.358Z,75.23
2019-01-20T19:10:57.964Z,58.80
2019-01-20T19:13:27.702Z,57.37
2019-01-20T19:15:56.834Z,58.93
2019-01-20T19:18:26.238Z,64.73
2019-01-20T19:20:55.550Z,59.27
2019-01-20T19:23:24.792Z,53.50
2019-01-20T19:25:54.445Z,56.30
2019-01-20T19:28:23.830Z,60.73
2019-01-20T19:30:53.338Z,59.47
2019-01-20T19:33:22.842Z,62.93
2019-01-20T19:35:52.422Z,57.33
2019-01-20T19:38:21.688Z,60.13
2019-01-20T19:40:50.852Z,57.90
2019-01-20T19:43:20.212Z,58.57
2019-01-20T19:45:49.411Z,58.57
2019-01-20T19:48:20.227Z,62.37
2019-01-20T19:50:49.678Z,65.60
2019-01-20T19:53:19.289Z,58.40
2019-01-20T19:55:48.925Z,62.47
2019-01-20T19:58:18.292Z,68.87
2019-01-20T20:00:47.630Z,61.80
2019-01-20T20:03:17.014Z,65.50
2019-01-20T20:05:46.707Z,62.57
2019-01-20T20:08:16.242Z,59.43
2019-01-20T20:10:45.614Z,64.73
2019-01-20T20:13:14.911Z,73.20
2019-01-20T20:15:44.403Z,63.27
2019-01-20T20:18:13.583Z,59.53
2019-01-20T20:20:43.029Z,62.00
2019-01-20T20:23:12.348Z,59.47
2019-01-20T20:25:41.824Z,64.93
2019-01-20T20:28:10.977Z,60.40
2019-01-20T20:30:40.246Z,64.10
2019-01-20T20:33:09.432Z,68.97
2019-01-20T20:35:38.802Z,65.50
2019-01-20T20:38:08.566Z,61.57
2019-01-20T20:40:38.089Z,75.43
2019-01-20T20:43:07.258Z,68.53
2019-01-20T20:45:36.848Z,65.97
2019-01-20T20:48:06.150Z,72.23
2019-01-20T20:50:35.440Z,78.83
2019-01-20T20:53:04.934Z,66.90
2019-01-20T20:55:34.403Z,75.00
2019-01-20T20:58:03.548Z,68.23
2019-01-20T21:00:38.785Z,69.70
2019-01-20T21:03:14.532Z,65.53
2019-01-20T21:05:43.890Z,66.30
2019-01-20T21:08:13.154Z,74.80
2019-01-20T21:10:42.371Z,71.03
2019-01-20T21:13:11.859Z,70.33
2019-01-20T21:15:41.063Z,66.90
2019-01-20T21:18:10.325Z,77.67
2019-01-20T21:20:39.533Z,76.93
2019-01-20T21:23:12.274Z,71.23
2019-01-20T21:25:40.420Z,76.43
2019-01-20T21:28:10.857Z,77.27
2019-01-20T21:30:42.125Z,66.10
2019-01-20T21:33:11.493Z,71.80
2019-01-20T21:35:40.728Z,70.00
2019-01-20T21:38:10.429Z,67.40
2019-01-20T21:40:39.882Z,67.70
2019-01-20T21:43:09.146Z,77.97
2019-01-20T21:45:38.253Z,74.80
2019-01-20T21:48:07.724Z,72.30
2019-01-20T21:50:37.524Z,74.70
2019-01-20T21:53:09.808Z,71.60
2019-01-20T21:55:40.006Z,67.67
2019-01-20T21:58:09.216Z,63.43
2019-01-20T22:00:38.520Z,65.30
2019-01-20T22:03:07.815Z,69.43
2019-01-20T22:05:37.089Z,69.47
2019-01-20T22:08:06.307Z,70.23
2019-01-20T22:10:35.657Z,67.20
2019-01-20T22:13:04.954Z,71.70
2019-01-20T22:15:34.103Z,71.13
2019-01-20T22:18:03.354Z,75.53
2019-01-20T22:20:32.646Z,72.73
2019-01-20T22:23:02.247Z,70.30
2019-01-20T22:25:31.570Z,72.00
2019-01-20T22:28:01.040Z,72.30
2019-01-20T22:30:30.382Z,70.17
2019-01-20T22:32:59.805Z,71.23
2019-01-20T22:35:29.303Z,68.13
2019-01-20T22:37:58.675Z,73.37
2019-01-20T22:40:28.181Z,71.30
2019-01-20T22:42:58.574Z,66.50
2019-01-20T22:45:28.718Z,69.63
2019-01-20T22:47:58.350Z,65.63
2019-01-20T22:50:27.775Z,65.93
2019-01-20T22:52:57.082Z,71.60
2019-01-20T22:55:26.227Z,57.20
2019-01-20T22:57:55.556Z,70.90
2019-01-20T23:00:47.056Z,63.83
2019-01-20T23:03:18.186Z,58.70
2019-01-20T23:05:48.537Z,73.63
2019-01-20T23:08:17.736Z,65.40
2019-01-20T23:10:46.872Z,60.90
2019-01-20T23:13:16.061Z,61.40
2019-01-20T23:15:45.532Z,59.10
2019-01-20T23:18:14.704Z,61.33
2019-01-20T23:20:44.095Z,54.83
2019-01-20T23:23:13.446Z,58.07
2019-01-20T23:25:42.725Z,59.97
2019-01-20T23:28:12.120Z,63.30
2019-01-20T23:30:41.481Z,62.13
2019-01-20T23:33:10.834Z,61.43
2019-01-20T23:35:40.146Z,61.97
2019-01-20T23:38:09.296Z,62.97
2019-01-20T23:40:38.511Z,64.60
2019-01-20T23:43:07.930Z,65.23
2019-01-20T23:45:37.037Z,64.50
2019-01-20T23:48:06.168Z,62.00
2019-01-20T23:50:35.563Z,61.67
2019-01-20T23:53:04.841Z,63.93
2019-01-20T23:55:35.338Z,57.80
2019-01-20T23:58:05.819Z,59.67
